Disclaimer

Please do not use the information listed here in-flight or in-navigation, as they are not provided to us by the airports but are provided by volunteers, so they might be outdated.

Search


Regions


Airport information page

Radio informations:
SZCZYTNO INFO - 118.025 MHz

Airport informations:
Latitude: 53° 28' 54.69" N
Longitude: 020° 56' 15.69" E
Elevation: 463 feet - 141 meters
Operating hours: Remarks
Operating agency: Private
Timezone: UTC+1(+2DT) - Last Sunday in March to last Sunday in October
Fuel: N/A

Runway information:
02/20 - 6562 x 197 feet< - >2000 x 60 meters

Recent METARs:
EPSY 201400Z 09007KT 040V140 9999 SCT027 02/M03 Q1026
EPSY 201430Z 08004KT 040V140 9999 FEW024 01/M03 Q1025
EPSY 201500Z 11004KT 050V170 9999 SCT024 01/M03 Q1025

Airport on the map: